Time;durP1;ratioP1;P1;durP2;ratioP2;P2;SDS_P1;SDS_P2;PMS_P1;PMS_P2;Temp;Humidity;BMP_temperature;BMP_pressure;BME280_temperature;BME280_humidity;BME280_pressure;Samples;Min_cycle;Max_cycle;Signal;HPM_P1;HPM_P2
2022/03/02 00:01:45;;;;;;;48.65;31.05;;;;;;;;;;5020785;28;90062;-75
2022/03/02 00:04:11;;;;;;;46.60;30.60;;;;;;;;;;5020600;28;89373;-75
2022/03/02 00:06:37;;;;;;;51.10;33.10;;;;;;;;;;5014273;28;89912;-75
2022/03/02 00:09:04;;;;;;;46.42;31.42;;;;;;;;;;5002480;28;92846;-75
2022/03/02 00:11:30;;;;;;;50.03;32.75;;;;;;;;;;5020647;28;88950;-75
2022/03/02 00:13:58;;;;;;;47.60;31.15;;;;;;;;;;5019754;28;90462;-74
2022/03/02 00:16:24;;;;;;;51.22;31.63;;;;;;;;;;5023207;28;89881;-74
2022/03/02 00:18:51;;;;;;;47.55;31.27;;;;;;;;;;5002347;28;89662;-74
2022/03/02 00:21:18;;;;;;;49.55;31.88;;;;;;;;;;5020082;28;89365;-74
2022/03/02 00:23:44;;;;;;;46.40;31.20;;;;;;;;;;5020120;28;89692;-74
2022/03/02 00:26:11;;;;;;;46.90;31.95;;;;;;;;;;5020016;28;90314;-74
2022/03/02 00:28:37;;;;;;;47.90;31.10;;;;;;;;;;5019747;28;90003;-74
2022/03/02 00:31:04;;;;;;;46.20;31.52;;;;;;;;;;5001916;28;90580;-74
2022/03/02 00:33:30;;;;;;;44.70;30.05;;;;;;;;;;5019993;28;89529;-74
2022/03/02 00:35:57;;;;;;;46.90;31.42;;;;;;;;;;5005240;28;94340;-74
2022/03/02 00:38:23;;;;;;;44.58;31.00;;;;;;;;;;5019479;28;91752;-76
2022/03/02 00:40:50;;;;;;;53.03;31.77;;;;;;;;;;5019771;28;89998;-76
2022/03/02 00:43:17;;;;;;;46.58;30.83;;;;;;;;;;5018791;28;90299;-76
2022/03/02 00:45:43;;;;;;;46.05;32.08;;;;;;;;;;5030161;28;91117;-76
2022/03/02 00:48:10;;;;;;;47.20;30.15;;;;;;;;;;5022064;28;89609;-74
2022/03/02 00:50:37;;;;;;;46.70;31.15;;;;;;;;;;5019793;28;89129;-76
2022/03/02 00:53:05;;;;;;;45.45;30.00;;;;;;;;;;5019811;28;89946;-75
2022/03/02 00:55:33;;;;;;;46.75;31.20;;;;;;;;;;5019139;28;89590;-75
2022/03/02 00:58:00;;;;;;;53.60;31.73;;;;;;;;;;5022387;28;89237;-76
2022/03/02 01:00:26;;;;;;;46.15;31.23;;;;;;;;;;5019890;28;89947;-76
2022/03/02 01:02:53;;;;;;;45.28;30.60;;;;;;;;;;5001728;28;91836;-76
2022/03/02 01:05:19;;;;;;;50.08;31.80;;;;;;;;;;5019508;28;90420;-75
2022/03/02 01:07:45;;;;;;;46.40;30.48;;;;;;;;;;5018982;28;90642;-77
2022/03/02 01:10:12;;;;;;;43.08;30.38;;;;;;;;;;5018955;28;89560;-76
2022/03/02 01:12:39;;;;;;;46.05;30.88;;;;;;;;;;5019468;28;90693;-76
2022/03/02 01:15:06;;;;;;;44.88;30.38;;;;;;;;;;5018955;28;89904;-76
2022/03/02 01:17:33;;;;;;;48.70;30.98;;;;;;;;;;5019382;28;89064;-76
2022/03/02 01:19:59;;;;;;;46.50;30.00;;;;;;;;;;5004749;28;89878;-76
2022/03/02 01:22:26;;;;;;;48.47;31.45;;;;;;;;;;5019311;28;88843;-75
2022/03/02 01:24:55;;;;;;;50.42;31.58;;;;;;;;;;5001647;28;90142;-76
2022/03/02 01:27:21;;;;;;;48.15;31.10;;;;;;;;;;5019171;28;89878;-75
2022/03/02 01:29:48;;;;;;;47.25;30.95;;;;;;;;;;5019088;28;89273;-75
2022/03/02 01:32:14;;;;;;;42.58;29.52;;;;;;;;;;5018659;28;90320;-75
2022/03/02 01:34:41;;;;;;;53.35;32.05;;;;;;;;;;5019293;28;89008;-75
2022/03/02 01:37:07;;;;;;;50.40;31.05;;;;;;;;;;5018912;28;89197;-76
2022/03/02 01:39:33;;;;;;;50.83;30.50;;;;;;;;;;5018839;28;89900;-75
2022/03/02 01:42:00;;;;;;;44.10;28.08;;;;;;;;;;5022024;28;88953;-75
2022/03/02 01:44:26;;;;;;;47.88;29.83;;;;;;;;;;5018620;28;90354;-76
2022/03/02 01:46:53;;;;;;;45.38;30.17;;;;;;;;;;5018896;28;89622;-76
2022/03/02 01:49:19;;;;;;;47.38;29.83;;;;;;;;;;5019225;28;88756;-76
2022/03/02 01:51:46;;;;;;;44.53;29.63;;;;;;;;;;5025187;27;89943;-77
2022/03/02 01:54:12;;;;;;;45.80;30.02;;;;;;;;;;5025776;27;89870;-76
2022/03/02 01:56:38;;;;;;;43.72;28.95;;;;;;;;;;5026985;27;89808;-75
2022/03/02 01:59:05;;;;;;;45.92;30.02;;;;;;;;;;5032302;27;90236;-74
2022/03/02 02:01:32;;;;;;;46.33;30.75;;;;;;;;;;5027904;27;89900;-75
2022/03/02 02:03:58;;;;;;;47.15;30.13;;;;;;;;;;5032613;27;90437;-76
2022/03/02 02:06:25;;;;;;;42.85;29.33;;;;;;;;;;5029353;27;88991;-77
2022/03/02 02:08:52;;;;;;;44.53;29.58;;;;;;;;;;5026451;27;90404;-76
2022/03/02 02:11:18;;;;;;;46.67;30.35;;;;;;;;;;5026459;27;90445;-76
2022/03/02 02:13:45;;;;;;;42.50;28.80;;;;;;;;;;5030844;27;90282;-75
2022/03/02 02:16:14;;;;;;;47.25;29.80;;;;;;;;;;5029070;27;89319;-76
2022/03/02 02:18:40;;;;;;;39.92;27.38;;;;;;;;;;5014027;27;91056;-76
2022/03/02 02:21:08;;;;;;;41.92;30.00;;;;;;;;;;5027701;27;89355;-76
2022/03/02 02:23:35;;;;;;;45.38;29.25;;;;;;;;;;5026612;27;88865;-75
2022/03/02 02:26:01;;;;;;;44.83;30.33;;;;;;;;;;5012498;28;90967;-77
2022/03/02 02:28:28;;;;;;;46.65;29.60;;;;;;;;;;5036624;27;90188;-75
2022/03/02 02:30:55;;;;;;;46.60;30.40;;;;;;;;;;5029596;27;90109;-75
2022/03/02 02:33:22;;;;;;;41.75;27.83;;;;;;;;;;5029724;27;89856;-76
2022/03/02 02:35:49;;;;;;;43.53;30.38;;;;;;;;;;5031761;27;89171;-76
2022/03/02 02:38:16;;;;;;;46.10;28.50;;;;;;;;;;5038735;27;89848;-76
2022/03/02 02:40:43;;;;;;;47.35;30.67;;;;;;;;;;5029755;27;89783;-75
2022/03/02 02:43:09;;;;;;;44.05;29.17;;;;;;;;;;5029041;27;91313;-76
2022/03/02 02:45:36;;;;;;;43.90;28.80;;;;;;;;;;5032401;27;90508;-75
2022/03/02 02:48:03;;;;;;;42.63;29.10;;;;;;;;;;5029600;27;88863;-76
2022/03/02 02:50:30;;;;;;;43.38;29.75;;;;;;;;;;5041933;27;90446;-75
2022/03/02 02:52:57;;;;;;;44.38;30.30;;;;;;;;;;5014933;27;90432;-75
2022/03/02 02:55:25;;;;;;;46.30;30.30;;;;;;;;;;5029238;27;90134;-75
2022/03/02 02:57:52;;;;;;;45.15;29.35;;;;;;;;;;5029821;27;90418;-75
2022/03/02 03:00:19;;;;;;;49.58;30.40;;;;;;;;;;5030481;27;90103;-76
2022/03/02 03:02:47;;;;;;;42.33;29.30;;;;;;;;;;5031709;27;88868;-75
2022/03/02 03:05:15;;;;;;;51.38;30.33;;;;;;;;;;5011216;27;93003;-75
2022/03/02 03:07:41;;;;;;;43.13;29.63;;;;;;;;;;5033282;27;89958;-75
2022/03/02 03:10:08;;;;;;;46.42;29.48;;;;;;;;;;5028424;27;90496;-76
2022/03/02 03:12:35;;;;;;;45.15;28.60;;;;;;;;;;5029383;27;89909;-74
2022/03/02 03:15:03;;;;;;;44.88;29.45;;;;;;;;;;5031543;27;89180;-76
2022/03/02 03:17:29;;;;;;;45.70;29.48;;;;;;;;;;5029143;27;89610;-75
2022/03/02 03:19:56;;;;;;;45.75;29.75;;;;;;;;;;5012748;27;89740;-74
2022/03/02 03:22:23;;;;;;;40.95;27.85;;;;;;;;;;5031477;27;88822;-74
2022/03/02 03:24:49;;;;;;;42.72;28.23;;;;;;;;;;5029087;27;90882;-73
2022/03/02 03:27:15;;;;;;;44.63;29.20;;;;;;;;;;5031714;27;90262;-73
2022/03/02 03:29:42;;;;;;;46.55;29.10;;;;;;;;;;5035505;27;90575;-74
2022/03/02 03:32:09;;;;;;;50.17;28.58;;;;;;;;;;5011310;27;91937;-76
2022/03/02 03:34:35;;;;;;;43.03;29.60;;;;;;;;;;5030798;27;90085;-76
2022/03/02 03:37:02;;;;;;;50.88;29.67;;;;;;;;;;5030126;27;90488;-75
2022/03/02 03:39:28;;;;;;;41.47;27.98;;;;;;;;;;5030045;27;89827;-74
2022/03/02 03:41:55;;;;;;;42.63;27.75;;;;;;;;;;5028596;27;89788;-76
2022/03/02 03:44:26;;;;;;;41.92;28.85;;;;;;;;;;5030869;27;90496;-75
2022/03/02 03:46:56;;;;;;;44.72;28.73;;;;;;;;;;5010592;28;91829;-76
2022/03/02 03:49:23;;;;;;;44.25;29.42;;;;;;;;;;5030293;27;90125;-75
2022/03/02 03:51:49;;;;;;;42.60;28.25;;;;;;;;;;5031899;27;90026;-75
2022/03/02 03:54:15;;;;;;;45.75;30.30;;;;;;;;;;5013267;27;89541;-76
2022/03/02 03:56:42;;;;;;;46.72;28.52;;;;;;;;;;5029413;27;90243;-74
2022/03/02 03:59:09;;;;;;;41.40;28.23;;;;;;;;;;5028135;27;90209;-76
2022/03/02 04:01:35;;;;;;;44.47;28.67;;;;;;;;;;5011506;27;90498;-77
2022/03/02 04:04:02;;;;;;;46.45;29.10;;;;;;;;;;5031382;27;90791;-76
2022/03/02 04:06:31;;;;;;;45.42;28.23;;;;;;;;;;5028176;27;90194;-76
2022/03/02 04:08:58;;;;;;;45.30;28.50;;;;;;;;;;5034759;27;88985;-75
2022/03/02 04:11:24;;;;;;;44.60;28.30;;;;;;;;;;5011042;28;89848;-74
2022/03/02 04:13:53;;;;;;;46.33;29.10;;;;;;;;;;5015797;27;89839;-74
2022/03/02 04:16:19;;;;;;;43.55;28.40;;;;;;;;;;5029815;27;90663;-74
2022/03/02 04:18:46;;;;;;;39.75;28.08;;;;;;;;;;5032929;27;90238;-75
2022/03/02 04:21:12;;;;;;;42.05;25.67;;;;;;;;;;5030500;27;89150;-76
2022/03/02 04:23:39;;;;;;;40.35;27.55;;;;;;;;;;5028276;27;90307;-76
2022/03/02 04:26:05;;;;;;;44.15;29.60;;;;;;;;;;5031627;27;89461;-76
2022/03/02 04:28:32;;;;;;;43.45;29.08;;;;;;;;;;5030544;27;90797;-75
2022/03/02 04:31:01;;;;;;;40.83;28.55;;;;;;;;;;5028396;27;90268;-76
2022/03/02 04:33:27;;;;;;;43.55;27.52;;;;;;;;;;5026096;27;89228;-75
2022/03/02 04:35:54;;;;;;;44.72;27.30;;;;;;;;;;5014047;28;89300;-74
2022/03/02 04:38:20;;;;;;;43.97;28.27;;;;;;;;;;5029909;27;89756;-76
2022/03/02 04:40:46;;;;;;;41.75;27.90;;;;;;;;;;5029944;27;88904;-76
2022/03/02 04:43:13;;;;;;;43.88;27.20;;;;;;;;;;5027334;27;89843;-75
2022/03/02 04:45:39;;;;;;;43.70;29.17;;;;;;;;;;5031250;27;89041;-74
2022/03/02 04:48:08;;;;;;;41.05;27.67;;;;;;;;;;5011329;27;90348;-75
2022/03/02 04:50:34;;;;;;;48.63;29.25;;;;;;;;;;5027384;27;89600;-75
2022/03/02 04:53:01;;;;;;;47.20;28.35;;;;;;;;;;5019899;28;89889;-77
2022/03/02 04:55:28;;;;;;;40.13;28.10;;;;;;;;;;5029721;28;89622;-76
2022/03/02 04:57:55;;;;;;;42.65;28.40;;;;;;;;;;5020039;28;89862;-75
2022/03/02 05:00:29;;;;;;;48.70;29.23;;;;;;;;;;5019477;28;89263;-75
2022/03/02 05:02:58;;;;;;;41.55;29.02;;;;;;;;;;5019635;28;90158;-76
2022/03/02 05:05:25;;;;;;;44.92;28.70;;;;;;;;;;5019762;28;89714;-75
2022/03/02 05:07:52;;;;;;;43.63;29.20;;;;;;;;;;5019252;28;88780;-75
2022/03/02 05:10:19;;;;;;;46.30;28.75;;;;;;;;;;5019241;28;90965;-76
2022/03/02 05:12:45;;;;;;;45.58;28.23;;;;;;;;;;5019404;28;89226;-75
2022/03/02 05:15:12;;;;;;;48.05;27.75;;;;;;;;;;5001714;28;89088;-75
2022/03/02 05:17:39;;;;;;;47.78;28.50;;;;;;;;;;5022302;28;90692;-75
2022/03/02 05:20:06;;;;;;;42.03;28.48;;;;;;;;;;5019283;28;88927;-75
2022/03/02 05:22:33;;;;;;;46.33;28.00;;;;;;;;;;5018795;28;89868;-75
2022/03/02 05:24:59;;;;;;;43.40;28.02;;;;;;;;;;5018967;28;90550;-75
2022/03/02 05:27:26;;;;;;;43.72;28.35;;;;;;;;;;5019435;28;89155;-75
2022/03/02 05:29:52;;;;;;;41.90;27.15;;;;;;;;;;5019436;28;90249;-75
2022/03/02 05:32:19;;;;;;;46.53;28.95;;;;;;;;;;5019116;28;89806;-76
2022/03/02 05:34:45;;;;;;;45.40;28.00;;;;;;;;;;5019072;28;89706;-75
2022/03/02 05:37:11;;;;;;;43.25;28.50;;;;;;;;;;5018434;28;90610;-75
2022/03/02 05:39:38;;;;;;;47.55;29.48;;;;;;;;;;5022036;28;89300;-75
2022/03/02 05:42:05;;;;;;;42.60;28.08;;;;;;;;;;5019071;28;90798;-75
2022/03/02 05:44:32;;;;;;;43.42;28.45;;;;;;;;;;5018510;28;90138;-75
2022/03/02 05:46:58;;;;;;;44.97;28.55;;;;;;;;;;5018813;28;88979;-75
2022/03/02 05:49:25;;;;;;;49.78;28.23;;;;;;;;;;5001586;28;90270;-75
2022/03/02 05:51:52;;;;;;;43.58;28.15;;;;;;;;;;5018291;28;90226;-76
2022/03/02 05:54:18;;;;;;;48.50;30.15;;;;;;;;;;5019410;28;88814;-76
2022/03/02 05:56:44;;;;;;;42.25;27.10;;;;;;;;;;5019079;28;90830;-75
2022/03/02 05:59:11;;;;;;;56.22;29.73;;;;;;;;;;5000793;28;89447;-75
2022/03/02 06:01:38;;;;;;;46.90;28.45;;;;;;;;;;4966024;28;90620;-75
2022/03/02 06:04:05;;;;;;;47.63;28.77;;;;;;;;;;4980198;28;90158;-75
2022/03/02 06:06:39;;;;;;;56.15;29.45;;;;;;;;;;4980633;28;89133;-76
2022/03/02 06:09:06;;;;;;;59.28;29.27;;;;;;;;;;4980703;28;90409;-76
2022/03/02 06:11:33;;;;;;;48.40;30.10;;;;;;;;;;4980406;28;89801;-75
2022/03/02 06:13:59;;;;;;;48.30;30.17;;;;;;;;;;4980472;28;89679;-75
2022/03/02 06:16:28;;;;;;;49.30;29.65;;;;;;;;;;4980198;28;90488;-74
2022/03/02 06:18:55;;;;;;;46.30;29.70;;;;;;;;;;4979846;28;89796;-74
2022/03/02 06:21:26;;;;;;;56.47;29.52;;;;;;;;;;4980050;28;89818;-77
2022/03/02 06:23:53;;;;;;;48.70;28.95;;;;;;;;;;4983147;28;92396;-75
2022/03/02 06:26:22;;;;;;;50.67;28.50;;;;;;;;;;4963388;28;90021;-75
2022/03/02 06:28:49;;;;;;;50.78;29.77;;;;;;;;;;4980193;28;90338;-75
2022/03/02 06:31:16;;;;;;;45.05;28.08;;;;;;;;;;4979983;28;90075;-76
2022/03/02 06:33:43;;;;;;;57.92;29.80;;;;;;;;;;5018116;28;90004;-76
2022/03/02 06:36:09;;;;;;;51.22;29.05;;;;;;;;;;5004508;28;89140;-76
2022/03/02 06:38:36;;;;;;;49.20;29.15;;;;;;;;;;5021988;28;90023;-76
2022/03/02 06:41:22;;;;;;;50.55;30.73;;;;;;;;;;5021679;28;89186;-75
2022/03/02 06:43:57;;;;;;;52.70;29.17;;;;;;;;;;5003977;28;91933;-74
2022/03/02 06:46:29;;;;;;;54.17;28.75;;;;;;;;;;5024633;28;89120;-75
2022/03/02 06:48:59;;;;;;;56.28;29.40;;;;;;;;;;4987907;28;90911;-75
2022/03/02 06:51:28;;;;;;;47.17;28.67;;;;;;;;;;5021470;28;89796;-75
2022/03/02 06:53:57;;;;;;;49.75;27.50;;;;;;;;;;5021654;28;89154;-74
2022/03/02 06:56:26;;;;;;;43.08;27.70;;;;;;;;;;5021334;28;90227;-75
2022/03/02 06:58:53;;;;;;;44.25;28.45;;;;;;;;;;5021481;28;89697;-75
2022/03/02 07:01:31;;;;;;;47.28;28.85;;;;;;;;;;5006429;28;89180;-75
2022/03/02 07:03:59;;;;;;;42.83;26.98;;;;;;;;;;5021644;28;89428;-75
2022/03/02 07:06:27;;;;;;;47.53;27.65;;;;;;;;;;5024338;28;89863;-75
2022/03/02 07:08:54;;;;;;;43.38;26.48;;;;;;;;;;5003238;28;91887;-76
2022/03/02 07:11:21;;;;;;;48.55;28.25;;;;;;;;;;5020546;28;89034;-74
2022/03/02 07:13:48;;;;;;;42.78;26.10;;;;;;;;;;5021090;28;88964;-75
2022/03/02 07:16:16;;;;;;;47.35;28.95;;;;;;;;;;5020911;28;90368;-76
2022/03/02 07:18:42;;;;;;;54.97;29.92;;;;;;;;;;5021142;28;89185;-74
2022/03/02 07:21:13;;;;;;;48.30;29.08;;;;;;;;;;5021079;28;89508;-74
2022/03/02 07:24:00;;;;;;;58.72;29.52;;;;;;;;;;5002565;28;93522;-74
2022/03/02 07:26:27;;;;;;;50.97;29.98;;;;;;;;;;5003215;28;90269;-75
2022/03/02 07:28:54;;;;;;;46.33;29.20;;;;;;;;;;5023882;28;89740;-76
2022/03/02 07:31:22;;;;;;;49.45;30.08;;;;;;;;;;5020738;28;89402;-76
2022/03/02 07:34:02;;;;;;;55.47;30.83;;;;;;;;;;5020707;28;89025;-74
2022/03/02 07:36:30;;;;;;;53.53;31.80;;;;;;;;;;5020888;28;90238;-76
2022/03/02 07:38:56;;;;;;;49.33;29.65;;;;;;;;;;5020894;28;89187;-77
2022/03/02 07:41:22;;;;;;;52.97;31.85;;;;;;;;;;5020668;28;89616;-75
2022/03/02 07:43:50;;;;;;;53.17;29.30;;;;;;;;;;5002807;28;90301;-74
2022/03/02 07:46:17;;;;;;;90.93;51.10;;;;;;;;;;5020772;28;90090;-75
2022/03/02 07:48:43;;;;;;;56.78;34.67;;;;;;;;;;5002195;28;90028;-75
2022/03/02 07:51:09;;;;;;;60.35;33.65;;;;;;;;;;5023296;28;91587;-74
2022/03/02 07:53:43;;;;;;;58.00;32.50;;;;;;;;;;5020618;28;89340;-74
2022/03/02 07:56:10;;;;;;;49.35;30.52;;;;;;;;;;5020657;28;90833;-76
2022/03/02 07:58:38;;;;;;;45.83;29.17;;;;;;;;;;5020747;28;89767;-76
2022/03/02 08:01:04;;;;;;;52.03;30.45;;;;;;;;;;5002465;28;90297;-76
2022/03/02 08:03:34;;;;;;;45.63;30.55;;;;;;;;;;5020337;28;90847;-76
2022/03/02 08:06:02;;;;;;;48.92;31.33;;;;;;;;;;5020164;28;89855;-76
2022/03/02 08:08:31;;;;;;;46.15;30.00;;;;;;;;;;5020424;28;88812;-75
2022/03/02 08:10:57;;;;;;;47.75;29.23;;;;;;;;;;5020595;28;89613;-75
2022/03/02 08:13:24;;;;;;;45.88;29.70;;;;;;;;;;5023444;28;89452;-76
2022/03/02 08:15:51;;;;;;;45.83;29.88;;;;;;;;;;5020056;28;90247;-74
2022/03/02 08:18:20;;;;;;;48.00;29.90;;;;;;;;;;5002895;28;89327;-77
2022/03/02 08:20:54;;;;;;;42.40;30.30;;;;;;;;;;5003442;28;89000;-78
2022/03/02 08:23:23;;;;;;;46.80;29.42;;;;;;;;;;5019398;28;90308;-75
2022/03/02 08:25:53;;;;;;;46.70;29.40;;;;;;;;;;5019848;28;90998;-77
2022/03/02 08:28:20;;;;;;;47.08;29.05;;;;;;;;;;5019888;28;89185;-75
2022/03/02 08:30:49;;;;;;;44.50;30.38;;;;;;;;;;5020131;28;89653;-75
2022/03/02 08:33:20;;;;;;;47.78;30.20;;;;;;;;;;5020057;28;88791;-75
2022/03/02 08:35:49;;;;;;;44.22;29.58;;;;;;;;;;5022859;28;89030;-74
2022/03/02 08:38:16;;;;;;;47.15;29.98;;;;;;;;;;5019567;28;90805;-74
2022/03/02 08:40:43;;;;;;;42.60;28.75;;;;;;;;;;5019549;28;88903;-78
2022/03/02 08:43:09;;;;;;;47.15;29.35;;;;;;;;;;5019529;28;90220;-74
2022/03/02 08:45:35;;;;;;;46.70;30.10;;;;;;;;;;5019949;28;89974;-75
2022/03/02 08:48:05;;;;;;;43.30;29.13;;;;;;;;;;5020085;28;88817;-75
2022/03/02 08:50:31;;;;;;;57.13;35.97;;;;;;;;;;5019461;28;91398;-73
2022/03/02 08:52:58;;;;;;;46.95;30.52;;;;;;;;;;5019632;28;89706;-74
2022/03/02 08:55:29;;;;;;;43.50;28.63;;;;;;;;;;5018907;28;90415;-74
2022/03/02 08:57:56;;;;;;;45.88;29.10;;;;;;;;;;5022364;28;88930;-75
2022/03/02 09:00:23;;;;;;;48.35;29.88;;;;;;;;;;5019874;28;89440;-75
2022/03/02 09:02:51;;;;;;;43.55;27.17;;;;;;;;;;5007472;28;89260;-75
2022/03/02 09:05:18;;;;;;;36.40;26.92;;;;;;;;;;5019885;28;89081;-75
2022/03/02 09:07:45;;;;;;;45.38;27.08;;;;;;;;;;5028135;27;89277;-74
2022/03/02 09:10:11;;;;;;;38.83;26.73;;;;;;;;;;5030202;27;90255;-74
2022/03/02 09:12:48;;;;;;;37.83;26.02;;;;;;;;;;5026915;27;89730;-74
2022/03/02 09:15:15;;;;;;;36.03;25.00;;;;;;;;;;5027757;27;89336;-74
2022/03/02 09:17:41;;;;;;;36.78;24.98;;;;;;;;;;5033464;27;90533;-73
2022/03/02 09:20:08;;;;;;;40.10;26.65;;;;;;;;;;5026179;27;89899;-74
2022/03/02 09:22:35;;;;;;;38.30;25.45;;;;;;;;;;5027663;27;90804;-74
2022/03/02 09:25:02;;;;;;;36.70;25.33;;;;;;;;;;5028093;27;89703;-74
2022/03/02 09:27:33;;;;;;;36.05;25.45;;;;;;;;;;5028887;27;89034;-74
2022/03/02 09:30:00;;;;;;;37.40;24.63;;;;;;;;;;5010535;28;92479;-74
2022/03/02 09:32:27;;;;;;;36.85;24.60;;;;;;;;;;5010572;27;92358;-75
2022/03/02 09:34:55;;;;;;;36.33;22.95;;;;;;;;;;5013379;27;90746;-75
2022/03/02 09:37:22;;;;;;;35.13;24.25;;;;;;;;;;5012507;28;89759;-74
2022/03/02 09:39:52;;;;;;;35.80;24.08;;;;;;;;;;5029613;27;91194;-73
2022/03/02 09:42:26;;;;;;;38.35;24.25;;;;;;;;;;5026892;27;90510;-74
2022/03/02 09:44:58;;;;;;;34.38;23.60;;;;;;;;;;5028617;27;89354;-74
2022/03/02 09:47:30;;;;;;;38.13;23.85;;;;;;;;;;5026911;27;90027;-75
2022/03/02 09:49:57;;;;;;;35.40;23.23;;;;;;;;;;5035323;27;90241;-74
2022/03/02 09:52:23;;;;;;;33.35;23.50;;;;;;;;;;5015613;27;89712;-74
2022/03/02 09:54:52;;;;;;;35.53;23.10;;;;;;;;;;5029390;27;89346;-73
2022/03/02 09:57:19;;;;;;;36.45;23.58;;;;;;;;;;5025706;27;89495;-73
2022/03/02 09:59:55;;;;;;;33.38;23.30;;;;;;;;;;5027028;27;89614;-74
2022/03/02 10:02:36;;;;;;;33.65;23.38;;;;;;;;;;5033750;27;89006;-73
2022/03/02 10:05:05;;;;;;;32.72;22.80;;;;;;;;;;5026079;27;90467;-73
2022/03/02 10:07:34;;;;;;;35.83;23.52;;;;;;;;;;5025989;27;90208;-74
2022/03/02 10:10:08;;;;;;;36.10;23.55;;;;;;;;;;5026177;27;89370;-72
2022/03/02 10:12:35;;;;;;;32.78;23.27;;;;;;;;;;5026056;27;92553;-71
2022/03/02 10:15:02;;;;;;;35.03;23.00;;;;;;;;;;5029512;27;88892;-70
2022/03/02 10:17:37;;;;;;;29.20;21.17;;;;;;;;;;5026569;27;90434;-74
2022/03/02 10:20:07;;;;;;;33.58;21.55;;;;;;;;;;5026167;27;89981;-73
2022/03/02 10:22:40;;;;;;;29.88;22.13;;;;;;;;;;5026867;27;89084;-74
2022/03/02 10:25:08;;;;;;;31.63;22.88;;;;;;;;;;5031401;27;90924;-74
2022/03/02 10:27:55;;;;;;;32.38;23.60;;;;;;;;;;5026530;27;89036;-74
2022/03/02 10:30:30;;;;;;;37.45;23.50;;;;;;;;;;5026147;27;92378;-73
2022/03/02 10:33:03;;;;;;;28.40;21.63;;;;;;;;;;5025100;27;89353;-73
2022/03/02 10:35:31;;;;;;;35.25;22.52;;;;;;;;;;5024303;27;91308;-74
2022/03/02 10:38:02;;;;;;;31.40;21.23;;;;;;;;;;5026491;27;90304;-74
2022/03/02 10:40:31;;;;;;;33.87;21.47;;;;;;;;;;5028961;27;89259;-74
2022/03/02 10:43:00;;;;;;;31.58;21.00;;;;;;;;;;5025018;27;89983;-74
2022/03/02 10:45:29;;;;;;;29.80;21.73;;;;;;;;;;5025768;27;89714;-73
2022/03/02 10:47:59;;;;;;;35.40;21.63;;;;;;;;;;5033227;27;90050;-77
2022/03/02 10:50:27;;;;;;;30.73;21.95;;;;;;;;;;5030665;27;90139;-74
2022/03/02 10:52:55;;;;;;;28.38;20.80;;;;;;;;;;5028746;27;89817;-74
2022/03/02 10:55:22;;;;;;;34.72;21.77;;;;;;;;;;5030742;27;89403;-73
2022/03/02 10:57:49;;;;;;;30.55;19.30;;;;;;;;;;5031746;27;90664;-73
2022/03/02 11:00:17;;;;;;;27.77;18.20;;;;;;;;;;5026699;27;89788;-75
2022/03/02 11:02:45;;;;;;;26.88;19.38;;;;;;;;;;5036668;27;89166;-72
2022/03/02 11:05:13;;;;;;;27.88;19.02;;;;;;;;;;5033264;27;90236;-73
2022/03/02 11:07:43;;;;;;;;;;;;;;;;;;5032483;27;89078;-73
2022/03/02 11:10:10;;;;;;;27.23;18.17;;;;;;;;;;5029040;27;121179;-74
2022/03/02 11:12:39;;;;;;;30.42;18.73;;;;;;;;;;5028835;27;89748;-74
2022/03/02 11:15:07;;;;;;;27.08;17.88;;;;;;;;;;5010733;27;91181;-73
2022/03/02 11:17:33;;;;;;;26.77;18.40;;;;;;;;;;5031239;27;90677;-74
2022/03/02 11:20:07;;;;;;;24.85;16.65;;;;;;;;;;5030729;27;89819;-74
2022/03/02 11:22:34;;;;;;;26.38;17.23;;;;;;;;;;5029733;27;89531;-73
2022/03/02 11:25:00;;;;;;;24.70;17.92;;;;;;;;;;5034050;27;90670;-74
2022/03/02 11:27:28;;;;;;;24.95;16.92;;;;;;;;;;5031464;27;89583;-73
2022/03/02 11:30:05;;;;;;;26.45;17.15;;;;;;;;;;5031388;27;89340;-73
2022/03/02 11:32:33;;;;;;;25.80;16.05;;;;;;;;;;5028993;27;90543;-75
2022/03/02 11:35:00;;;;;;;23.60;15.48;;;;;;;;;;5031528;27;89390;-72
2022/03/02 11:37:28;;;;;;;21.35;15.20;;;;;;;;;;5028663;27;89156;-70
2022/03/02 11:39:54;;;;;;;20.45;15.30;;;;;;;;;;5028395;27;90250;-74
2022/03/02 11:42:26;;;;;;;24.52;15.43;;;;;;;;;;5017630;27;89332;-74
2022/03/02 11:44:55;;;;;;;22.55;15.05;;;;;;;;;;5035418;27;89725;-73
2022/03/02 11:47:23;;;;;;;24.45;15.82;;;;;;;;;;5031783;27;89148;-73
2022/03/02 11:49:52;;;;;;;20.95;15.10;;;;;;;;;;5028875;27;90046;-74
2022/03/02 11:52:24;;;;;;;21.92;15.07;;;;;;;;;;5033982;27;92017;-74
2022/03/02 11:54:52;;;;;;;17.75;13.75;;;;;;;;;;5028466;27;89592;-74
2022/03/02 11:57:19;;;;;;;18.80;13.13;;;;;;;;;;5028231;27;89779;-74
2022/03/02 11:59:46;;;;;;;19.25;14.25;;;;;;;;;;5028472;27;89737;-74
2022/03/02 12:02:14;;;;;;;16.75;13.13;;;;;;;;;;5029887;27;89266;-75
2022/03/02 12:04:55;;;;;;;18.23;13.57;;;;;;;;;;5029782;27;90291;-74
2022/03/02 12:07:22;;;;;;;17.83;13.03;;;;;;;;;;5028194;27;89726;-73
2022/03/02 12:09:49;;;;;;;19.35;12.75;;;;;;;;;;5030088;27;89995;-73
2022/03/02 12:12:21;;;;;;;17.60;13.13;;;;;;;;;;5031141;27;89074;-75
2022/03/02 12:14:55;;;;;;;17.95;12.75;;;;;;;;;;5034413;27;89196;-73
2022/03/02 12:17:25;;;;;;;17.73;12.95;;;;;;;;;;5031943;27;89858;-74
2022/03/02 12:19:53;;;;;;;17.73;12.23;;;;;;;;;;5039808;28;89954;-74
2022/03/02 12:22:20;;;;;;;16.80;11.68;;;;;;;;;;5040191;28;89120;-72
2022/03/02 12:24:47;;;;;;;19.23;12.48;;;;;;;;;;5040248;28;90436;-75
2022/03/02 12:27:15;;;;;;;16.02;11.88;;;;;;;;;;5039768;28;89792;-73
2022/03/02 12:29:42;;;;;;;17.30;11.90;;;;;;;;;;5040113;28;88983;-74
2022/03/02 12:32:08;;;;;;;16.77;12.90;;;;;;;;;;5040069;28;92188;-73
2022/03/02 12:34:39;;;;;;;20.40;13.50;;;;;;;;;;5039590;28;90989;-73
2022/03/02 12:37:06;;;;;;;38.17;21.05;;;;;;;;;;5043260;28;89002;-73
2022/03/02 12:39:33;;;;;;;17.83;13.80;;;;;;;;;;5039797;28;90098;-73
2022/03/02 12:42:02;;;;;;;15.32;12.38;;;;;;;;;;5040059;28;88870;-73
2022/03/02 12:44:29;;;;;;;14.68;11.68;;;;;;;;;;5039546;28;89411;-73
2022/03/02 12:46:57;;;;;;;17.73;11.45;;;;;;;;;;5039479;28;89955;-73
2022/03/02 12:49:26;;;;;;;11.73;10.38;;;;;;;;;;5039981;28;89157;-73
2022/03/02 12:51:54;;;;;;;14.02;10.75;;;;;;;;;;5022197;28;89887;-74
2022/03/02 12:54:21;;;;;;;14.48;11.00;;;;;;;;;;5039955;28;89896;-74
2022/03/02 12:56:48;;;;;;;16.05;10.70;;;;;;;;;;5039892;28;88739;-74
2022/03/02 12:59:14;;;;;;;13.23;10.45;;;;;;;;;;5043009;28;90522;-74
2022/03/02 13:01:41;;;;;;;13.32;10.30;;;;;;;;;;5039328;28;89160;-74
2022/03/02 13:04:11;;;;;;;14.18;10.90;;;;;;;;;;5046270;28;91259;-75
2022/03/02 13:06:40;;;;;;;20.25;11.65;;;;;;;;;;5041921;28;88913;-75
2022/03/02 13:09:26;;;;;;;15.80;11.70;;;;;;;;;;5039106;28;88790;-74
2022/03/02 13:11:52;;;;;;;18.02;11.10;;;;;;;;;;5039506;28;89631;-75
2022/03/02 13:14:34;;;;;;;15.20;10.48;;;;;;;;;;5039267;28;89897;-75
2022/03/02 13:17:18;;;;;;;12.35;9.85;;;;;;;;;;5021568;28;91347;-75
2022/03/02 13:20:15;;;;;;;18.42;11.75;;;;;;;;;;5043356;28;89316;-75
2022/03/02 13:22:41;;;;;;;13.57;11.07;;;;;;;;;;5021585;28;89206;-75
2022/03/02 13:25:09;;;;;;;15.00;11.60;;;;;;;;;;5004705;28;89883;-75
2022/03/02 13:27:38;;;;;;;15.60;11.73;;;;;;;;;;5039328;28;89568;-75
2022/03/02 13:30:05;;;;;;;21.10;12.20;;;;;;;;;;5039461;28;89224;-75
2022/03/02 13:32:52;;;;;;;16.38;12.50;;;;;;;;;;5039416;28;89112;-74
2022/03/02 13:35:52;;;;;;;15.57;11.68;;;;;;;;;;5024274;28;89595;-75
2022/03/02 13:38:18;;;;;;;15.20;11.50;;;;;;;;;;5021415;28;89270;-74
2022/03/02 13:40:46;;;;;;;15.07;11.88;;;;;;;;;;5039209;28;90795;-75
2022/03/02 13:43:12;;;;;;;15.32;11.55;;;;;;;;;;5041354;28;89578;-75
2022/03/02 13:45:39;;;;;;;15.10;11.18;;;;;;;;;;5039162;28;90086;-76
2022/03/02 13:48:16;;;;;;;14.52;11.38;;;;;;;;;;5039255;28;89782;-75
2022/03/02 13:50:59;;;;;;;15.48;11.38;;;;;;;;;;5039117;28;89352;-75
2022/03/02 13:53:32;;;;;;;18.92;12.75;;;;;;;;;;5039022;28;90405;-75
2022/03/02 13:56:09;;;;;;;17.80;12.80;;;;;;;;;;5038670;28;89104;-74
2022/03/02 13:58:37;;;;;;;16.30;12.60;;;;;;;;;;5021453;28;88798;-77
2022/03/02 14:01:24;;;;;;;19.63;13.15;;;;;;;;;;5035712;27;89943;-76
2022/03/02 14:03:59;;;;;;;14.80;12.38;;;;;;;;;;5026670;27;89688;-76
2022/03/02 14:06:26;;;;;;;17.55;13.40;;;;;;;;;;5033093;27;90246;-76
2022/03/02 14:08:53;;;;;;;18.27;13.50;;;;;;;;;;5028659;27;89765;-75
2022/03/02 14:11:29;;;;;;;18.70;12.55;;;;;;;;;;5030998;27;89283;-76
2022/03/02 14:13:56;;;;;;;18.95;13.18;;;;;;;;;;5028652;27;90855;-76
2022/03/02 14:16:22;;;;;;;16.63;12.65;;;;;;;;;;5012209;27;91317;-76
2022/03/02 14:19:02;;;;;;;16.17;12.80;;;;;;;;;;5029419;27;89605;-76
2022/03/02 14:21:28;;;;;;;17.90;12.80;;;;;;;;;;5010099;27;90407;-76
2022/03/02 14:23:55;;;;;;;33.45;22.50;;;;;;;;;;5030497;27;89791;-76
2022/03/02 14:26:22;;;;;;;17.35;13.45;;;;;;;;;;5012991;28;89421;-75